Time;durP1;ratioP1;P1;durP2;ratioP2;P2;SDS_P1;SDS_P2;PMS_P1;PMS_P2;Temp;Humidity;BMP_temperature;BMP_pressure;BME280_temperature;BME280_humidity;BME280_pressure;Samples;Min_cycle;Max_cycle;Signal;HPM_P1;HPM_P2
2022/09/12 00:01:53;;;;;;;;;;;16.00;99.10;;;;;;4996847;28;20036;-77
2022/09/12 00:04:22;;;;;;;;;;;16.00;99.10;;;;;;4995944;28;20288;-78
2022/09/12 00:06:48;;;;;;;;;;;15.90;99.00;;;;;;4995665;28;19933;-76
2022/09/12 00:09:16;;;;;;;;;;;15.90;99.00;;;;;;5001854;28;19933;-77
2022/09/12 00:11:44;;;;;;;;;;;15.90;99.10;;;;;;4990018;28;19930;-77
2022/09/12 00:14:13;;;;;;;;;;;15.90;99.10;;;;;;4997486;28;19959;-77
2022/09/12 00:16:40;;;;;;;;;;;15.90;99.00;;;;;;4988965;28;20991;-77
2022/09/12 00:19:07;;;;;;;;;;;15.80;99.00;;;;;;5001890;28;19925;-77
2022/09/12 00:21:36;;;;;;;;;;;15.80;99.00;;;;;;4995082;28;20385;-77
2022/09/12 00:24:03;;;;;;;;;;;15.80;98.90;;;;;;4998440;28;19941;-78
2022/09/12 00:26:30;;;;;;;;;;;15.70;98.90;;;;;;4993195;28;19936;-78
2022/09/12 00:28:57;;;;;;;;;;;15.70;98.80;;;;;;5000367;28;19926;-77
2022/09/12 00:31:25;;;;;;;;;;;15.70;98.90;;;;;;4991716;28;20020;-77
2022/09/12 00:33:52;;;;;;;;;;;15.60;98.80;;;;;;4997271;28;19945;-78
2022/09/12 00:36:20;;;;;;;;;;;15.70;98.80;;;;;;4999414;28;20009;-77
2022/09/12 00:38:49;;;;;;;;;;;15.60;98.90;;;;;;4995078;28;19934;-77
2022/09/12 00:41:17;;;;;;;;;;;15.60;98.70;;;;;;5000370;28;19929;-78
2022/09/12 00:43:45;;;;;;;;;;;15.50;98.60;;;;;;4994351;28;19934;-76
2022/09/12 00:46:16;;;;;;;;;;;15.40;98.60;;;;;;4981469;28;19941;-77
2022/09/12 00:48:47;;;;;;;;;;;15.40;98.60;;;;;;5000322;28;19937;-78
2022/09/12 00:51:14;;;;;;;;;;;15.40;98.70;;;;;;4997807;28;19987;-77
2022/09/12 00:53:43;;;;;;;;;;;15.40;98.70;;;;;;4995288;28;20300;-76
2022/09/12 00:56:12;;;;;;;;;;;15.30;98.70;;;;;;4997315;28;19971;-77
2022/09/12 00:58:41;;;;;;;;;;;15.30;98.80;;;;;;5001517;28;19925;-77
2022/09/12 01:01:08;;;;;;;;;;;15.30;98.70;;;;;;4993947;28;19929;-77
2022/09/12 01:03:35;;;;;;;;;;;15.30;98.70;;;;;;4993433;28;20113;-77
2022/09/12 01:06:12;;;;;;;;;;;15.20;98.70;;;;;;4978957;28;20494;-77
2022/09/12 01:08:39;;;;;;;;;;;15.20;98.80;;;;;;4987371;28;19926;-77
2022/09/12 01:11:08;;;;;;;;;;;15.20;98.90;;;;;;4998884;28;20343;-77
2022/09/12 01:13:36;;;;;;;;;;;15.20;98.90;;;;;;4998742;28;19929;-77
2022/09/12 01:16:04;;;;;;;;;;;15.20;98.90;;;;;;4982264;28;19983;-77
2022/09/12 01:18:39;;;;;;;;;;;15.10;98.90;;;;;;4982300;28;19953;-76
2022/09/12 01:21:10;;;;;;;;;;;15.10;99.10;;;;;;5000050;28;19925;-77
2022/09/12 01:23:48;;;;;;;;;;;15.20;99.00;;;;;;4989382;28;19933;-77
2022/09/12 01:26:26;;;;;;;;;;;15.10;99.00;;;;;;5004146;28;20224;-76
2022/09/12 01:29:01;;;;;;;;;;;15.10;99.00;;;;;;5002460;28;19965;-77
2022/09/12 01:31:31;;;;;;;;;;;15.00;99.00;;;;;;4999372;28;19942;-78
2022/09/12 01:34:06;;;;;;;;;;;15.00;99.10;;;;;;5000427;28;20052;-77
2022/09/12 01:36:37;;;;;;;;;;;14.90;99.10;;;;;;4999595;28;19933;-78
2022/09/12 01:39:04;;;;;;;;;;;14.90;99.20;;;;;;4997032;28;19984;-78
2022/09/12 01:41:36;;;;;;;;;;;14.90;99.10;;;;;;4999736;28;19932;-77
2022/09/12 01:44:09;;;;;;;;;;;14.90;99.10;;;;;;5002329;28;20491;-77
2022/09/12 01:46:41;;;;;;;;;;;14.90;99.10;;;;;;5000068;28;19965;-77
2022/09/12 01:49:11;;;;;;;;;;;14.90;99.10;;;;;;5001461;28;20063;-77
2022/09/12 01:51:39;;;;;;;;;;;14.90;99.10;;;;;;4996914;28;20019;-77
2022/09/12 01:54:08;;;;;;;;;;;14.90;99.10;;;;;;5002697;28;19964;-77
2022/09/12 01:56:36;;;;;;;;;;;14.80;99.10;;;;;;4995884;28;19936;-77
2022/09/12 01:59:05;;;;;;;;;;;14.80;99.10;;;;;;5002035;28;20033;-77
2022/09/12 02:01:33;;;;;;;;;;;14.80;99.10;;;;;;4983570;28;20296;-78
2022/09/12 02:04:05;;;;;;;;;;;14.80;99.10;;;;;;4983427;28;19926;-77
2022/09/12 02:06:33;;;;;;;;;;;14.80;99.10;;;;;;4998646;28;19956;-78
2022/09/12 02:09:02;;;;;;;;;;;14.70;99.20;;;;;;4981292;28;20093;-77
2022/09/12 02:11:31;;;;;;;;;;;14.70;99.30;;;;;;4998724;28;20016;-78
2022/09/12 02:14:00;;;;;;;;;;;14.60;99.30;;;;;;5003087;28;19930;-78
2022/09/12 02:16:30;;;;;;;;;;;14.60;99.30;;;;;;4997199;28;19933;-76
2022/09/12 02:18:59;;;;;;;;;;;14.60;99.40;;;;;;5003233;28;20288;-76
2022/09/12 02:21:31;;;;;;;;;;;14.60;99.30;;;;;;4994645;28;20455;-78
2022/09/12 02:24:01;;;;;;;;;;;14.60;99.40;;;;;;5002255;28;19933;-77
2022/09/12 02:26:31;;;;;;;;;;;14.50;99.40;;;;;;5005302;28;20021;-77
2022/09/12 02:28:57;;;;;;;;;;;14.50;99.40;;;;;;4999823;28;19929;-77
2022/09/12 02:31:27;;;;;;;;;;;14.50;99.40;;;;;;5000568;28;19956;-77
2022/09/12 02:34:01;;;;;;;;;;;14.50;99.50;;;;;;5001250;28;20031;-78
2022/09/12 02:36:33;;;;;;;;;;;14.50;99.50;;;;;;5003090;28;19936;-77
2022/09/12 02:39:00;;;;;;;;;;;14.50;99.50;;;;;;4997496;28;19960;-78
2022/09/12 02:43:55;;;;;;;;;;;14.40;99.60;;;;;;5020489;28;19933;-76
2022/09/12 02:46:23;;;;;;;;;;;14.40;99.60;;;;;;4999659;28;20346;-78
2022/09/12 02:48:50;;;;;;;;;;;14.40;99.80;;;;;;5012844;28;19926;-76
2022/09/12 02:51:17;;;;;;;;;;;14.30;99.50;;;;;;4984144;28;19988;-76
2022/09/12 02:53:45;;;;;;;;;;;14.30;99.40;;;;;;4997824;28;19936;-77
2022/09/12 02:56:14;;;;;;;;;;;14.30;99.40;;;;;;4995586;28;19937;-77
2022/09/12 02:58:41;;;;;;;;;;;14.20;99.40;;;;;;5002761;28;20024;-76
2022/09/12 03:01:11;;;;;;;;;;;14.20;99.40;;;;;;4995550;28;20016;-78
2022/09/12 03:03:47;;;;;;;;;;;14.20;99.40;;;;;;4994192;28;19991;-77
2022/09/12 03:06:18;;;;;;;;;;;14.10;99.40;;;;;;4994776;28;19940;-77
2022/09/12 03:08:53;;;;;;;;;;;14.10;99.40;;;;;;4998496;28;20420;-77
2022/09/12 03:11:28;;;;;;;;;;;14.10;99.40;;;;;;4995848;28;20020;-77
2022/09/12 03:14:03;;;;;;;;;;;14.00;99.40;;;;;;4996117;28;19934;-77
2022/09/12 03:16:33;;;;;;;;;;;14.00;99.40;;;;;;4984897;28;20252;-77
2022/09/12 03:19:03;;;;;;;;;;;14.00;99.50;;;;;;4975599;28;20021;-77
2022/09/12 03:21:33;;;;;;;;;;;14.00;99.50;;;;;;4995195;28;19981;-77
2022/09/12 03:24:04;;;;;;;;;;;14.00;99.50;;;;;;4996482;28;19965;-76
2022/09/12 03:26:33;;;;;;;;;;;14.00;99.50;;;;;;5000787;28;20016;-77
2022/09/12 03:29:01;;;;;;;;;;;13.90;99.60;;;;;;4997711;28;19933;-77
2022/09/12 03:31:28;;;;;;;;;;;13.90;99.60;;;;;;5002269;28;20360;-77
2022/09/12 03:33:55;;;;;;;;;;;13.90;99.60;;;;;;4985380;28;20066;-77
2022/09/12 03:36:23;;;;;;;;;;;13.90;99.60;;;;;;4998813;28;19941;-77
2022/09/12 03:38:50;;;;;;;;;;;13.90;99.70;;;;;;4995976;28;19929;-77
2022/09/12 03:41:18;;;;;;;;;;;13.90;99.70;;;;;;4990346;28;19925;-77
2022/09/12 03:43:45;;;;;;;;;;;13.90;99.70;;;;;;5002135;28;19932;-76
2022/09/12 03:46:12;;;;;;;;;;;13.90;99.70;;;;;;4997446;28;19940;-77
2022/09/12 03:48:39;;;;;;;;;;;13.80;99.70;;;;;;5001101;28;20411;-77
2022/09/12 03:51:07;;;;;;;;;;;13.90;99.70;;;;;;4998520;28;19941;-77
2022/09/12 03:53:34;;;;;;;;;;;13.90;99.80;;;;;;4996708;28;20001;-77
2022/09/12 03:56:05;;;;;;;;;;;13.80;99.70;;;;;;4981226;28;19929;-77
2022/09/12 03:58:35;;;;;;;;;;;13.80;99.70;;;;;;5000860;28;20008;-77
2022/09/12 04:01:06;;;;;;;;;;;13.90;99.80;;;;;;4996178;28;19925;-77
2022/09/12 04:03:33;;;;;;;;;;;13.80;99.80;;;;;;5003154;28;20196;-77
2022/09/12 04:05:59;;;;;;;;;;;13.80;99.80;;;;;;4998944;28;20080;-78
2022/09/12 04:08:27;;;;;;;;;;;13.80;99.80;;;;;;4975986;28;20015;-77
2022/09/12 04:10:54;;;;;;;;;;;13.80;99.90;;;;;;4992295;28;20030;-77
2022/09/12 04:13:21;;;;;;;;;;;13.70;99.80;;;;;;5003104;28;20024;-77
2022/09/12 04:15:57;;;;;;;;;;;13.70;99.90;;;;;;4997232;28;19933;-77
2022/09/12 04:18:24;;;;;;;;;;;13.70;99.80;;;;;;4983257;28;20409;-77
2022/09/12 04:20:52;;;;;;;;;;;13.70;99.80;;;;;;4991828;28;20210;-77
2022/09/12 04:23:19;;;;;;;;;;;13.70;99.90;;;;;;4981481;28;19932;-77
2022/09/12 04:25:53;;;;;;;;;;;13.70;99.80;;;;;;4992210;28;20024;-77
2022/09/12 04:28:20;;;;;;;;;;;13.70;99.80;;;;;;4993259;28;20012;-75
2022/09/12 04:30:46;;;;;;;;;;;13.70;99.80;;;;;;4975483;28;19930;-77
2022/09/12 04:33:15;;;;;;;;;;;13.70;99.70;;;;;;4997653;28;19933;-74
2022/09/12 04:35:42;;;;;;;;;;;13.60;99.70;;;;;;5001007;28;19933;-76
2022/09/12 04:38:09;;;;;;;;;;;13.70;99.80;;;;;;4994775;28;19965;-74
2022/09/12 04:40:37;;;;;;;;;;;13.60;99.70;;;;;;4995336;28;20037;-77
2022/09/12 04:43:05;;;;;;;;;;;13.60;99.70;;;;;;4985034;28;19999;-76
2022/09/12 04:45:32;;;;;;;;;;;13.60;99.70;;;;;;4985673;28;19925;-74
2022/09/12 04:47:59;;;;;;;;;;;13.60;99.70;;;;;;4998200;28;19973;-75
2022/09/12 04:50:27;;;;;;;;;;;13.60;99.70;;;;;;5000199;28;20492;-76
2022/09/12 04:52:54;;;;;;;;;;;13.50;99.60;;;;;;4996681;28;19957;-78
2022/09/12 04:55:24;;;;;;;;;;;13.60;99.60;;;;;;4998483;28;19975;-78
2022/09/12 04:57:50;;;;;;;;;;;13.50;99.60;;;;;;5000441;28;20053;-76
2022/09/12 05:00:17;;;;;;;;;;;13.50;99.60;;;;;;4980435;28;19940;-77
2022/09/12 05:02:44;;;;;;;;;;;13.50;99.60;;;;;;4991669;28;19929;-77
2022/09/12 05:05:11;;;;;;;;;;;13.50;99.60;;;;;;4997755;28;19929;-74
2022/09/12 05:07:39;;;;;;;;;;;13.50;99.70;;;;;;4993311;28;19992;-75
2022/09/12 05:10:07;;;;;;;;;;;13.60;99.70;;;;;;4994598;28;19929;-76
2022/09/12 05:12:34;;;;;;;;;;;13.60;99.50;;;;;;4975807;28;20405;-77
2022/09/12 05:15:04;;;;;;;;;;;13.60;99.50;;;;;;4979512;28;20533;-75
2022/09/12 05:17:31;;;;;;;;;;;13.70;99.50;;;;;;5002922;28;20404;-75
2022/09/12 05:19:59;;;;;;;;;;;13.70;99.40;;;;;;5003465;28;20407;-75
2022/09/12 05:22:26;;;;;;;;;;;13.70;99.30;;;;;;4984217;28;19933;-74
2022/09/12 05:24:54;;;;;;;;;;;13.70;99.20;;;;;;4983903;28;19980;-77
2022/09/12 05:27:21;;;;;;;;;;;13.70;99.20;;;;;;4997009;28;20020;-76
2022/09/12 05:29:50;;;;;;;;;;;13.60;99.20;;;;;;4999785;28;19996;-75
2022/09/12 05:32:17;;;;;;;;;;;13.70;99.20;;;;;;5001021;28;19933;-75
2022/09/12 05:34:49;;;;;;;;;;;13.70;99.10;;;;;;5001668;28;19925;-75
2022/09/12 05:37:16;;;;;;;;;;;13.60;99.10;;;;;;4995084;28;19932;-75
2022/09/12 05:39:43;;;;;;;;;;;13.60;99.00;;;;;;5001473;28;19926;-76
2022/09/12 05:42:12;;;;;;;;;;;13.60;99.10;;;;;;4987808;28;19934;-75
2022/09/12 05:44:40;;;;;;;;;;;13.60;99.10;;;;;;4975657;28;20029;-75
2022/09/12 05:47:07;;;;;;;;;;;13.60;99.10;;;;;;4998083;28;19926;-75
2022/09/12 05:49:34;;;;;;;;;;;13.60;99.10;;;;;;4991087;28;19930;-76
2022/09/12 05:52:02;;;;;;;;;;;13.60;99.10;;;;;;4994689;28;20801;-78
2022/09/12 05:54:28;;;;;;;;;;;13.60;99.10;;;;;;5011379;28;19964;-75
2022/09/12 05:56:55;;;;;;;;;;;13.60;99.10;;;;;;4999287;28;19933;-75
2022/09/12 05:59:24;;;;;;;;;;;13.60;99.30;;;;;;4996878;28;19937;-75
2022/09/12 06:01:51;;;;;;;;;;;13.60;99.90;;;;;;4988039;28;19937;-76
2022/09/12 06:04:18;;;;;;;;;;;13.50;99.90;;;;;;4996128;28;19937;-76
2022/09/12 06:06:45;;;;;;;;;;;13.40;99.70;;;;;;4994901;28;20024;-76
2022/09/12 06:09:13;;;;;;;;;;;13.40;99.40;;;;;;4997360;28;19972;-78
2022/09/12 06:11:40;;;;;;;;;;;13.40;99.80;;;;;;5005430;28;19925;-76
2022/09/12 06:14:08;;;;;;;;;;;13.50;99.80;;;;;;5002899;28;21083;-75
2022/09/12 06:16:37;;;;;;;;;;;13.50;99.70;;;;;;5005661;28;19932;-76
2022/09/12 06:19:05;;;;;;;;;;;13.50;99.60;;;;;;5005735;28;19925;-76
2022/09/12 06:21:34;;;;;;;;;;;13.50;99.60;;;;;;4989252;28;20016;-76
2022/09/12 06:24:01;;;;;;;;;;;13.50;99.50;;;;;;5010351;28;19926;-76
2022/09/12 06:26:28;;;;;;;;;;;13.50;99.50;;;;;;5002394;28;20331;-76
2022/09/12 06:28:56;;;;;;;;;;;13.50;99.50;;;;;;4991451;28;20299;-77
2022/09/12 06:31:24;;;;;;;;;;;13.60;99.50;;;;;;5008138;28;19964;-76
2022/09/12 06:33:53;;;;;;;;;;;13.50;99.40;;;;;;5008817;28;19995;-76
2022/09/12 06:36:21;;;;;;;;;;;13.50;99.30;;;;;;5005400;28;20346;-75
2022/09/12 06:38:48;;;;;;;;;;;13.60;99.40;;;;;;5010382;28;19957;-75
2022/09/12 06:41:15;;;;;;;;;;;13.50;99.30;;;;;;5008332;28;20402;-76
2022/09/12 06:43:42;;;;;;;;;;;13.60;99.40;;;;;;5007736;28;19979;-75
2022/09/12 06:46:10;;;;;;;;;;;13.60;99.40;;;;;;5007545;28;19961;-77
2022/09/12 06:48:37;;;;;;;;;;;13.60;99.30;;;;;;4993188;28;19932;-77
2022/09/12 06:51:07;;;;;;;;;;;13.60;99.30;;;;;;5007226;28;19925;-76
2022/09/12 06:53:36;;;;;;;;;;;13.60;99.30;;;;;;5008202;28;19926;-76
2022/09/12 06:56:06;;;;;;;;;;;13.50;99.30;;;;;;5006491;28;19940;-75
2022/09/12 06:58:33;;;;;;;;;;;13.50;99.30;;;;;;5011738;28;19925;-75
2022/09/12 07:01:02;;;;;;;;;;;13.50;99.30;;;;;;4989596;28;20368;-75
2022/09/12 07:03:29;;;;;;;;;;;13.50;99.40;;;;;;5011931;28;19998;-76
2022/09/12 07:05:56;;;;;;;;;;;13.50;99.40;;;;;;5009147;28;19957;-75
2022/09/12 07:08:24;;;;;;;;;;;13.40;99.50;;;;;;5011001;28;20575;-75
2022/09/12 07:10:52;;;;;;;;;;;13.40;99.60;;;;;;5003270;28;19999;-75
2022/09/12 07:13:19;;;;;;;;;;;13.30;99.70;;;;;;5007974;28;20352;-76
2022/09/12 07:15:46;;;;;;;;;;;13.30;99.90;;;;;;5002612;28;20027;-75
2022/09/12 07:18:13;;;;;;;;;;;13.30;99.90;;;;;;5005381;28;19933;-77
2022/09/12 07:20:41;;;;;;;;;;;13.30;99.90;;;;;;5003680;28;20012;-76
2022/09/12 07:23:08;;;;;;;;;;;13.30;99.90;;;;;;5010219;28;19933;-75
2022/09/12 07:25:37;;;;;;;;;;;13.30;99.90;;;;;;5004190;28;20292;-75
2022/09/12 07:28:04;;;;;;;;;;;13.20;99.90;;;;;;5010039;28;19925;-76
2022/09/12 07:30:31;;;;;;;;;;;13.20;99.90;;;;;;5005897;28;20167;-76
2022/09/12 07:32:58;;;;;;;;;;;13.20;99.90;;;;;;5004945;28;19972;-75
2022/09/12 07:35:27;;;;;;;;;;;13.10;99.90;;;;;;5005686;28;19972;-76
2022/09/12 07:37:55;;;;;;;;;;;13.20;99.90;;;;;;5011148;28;20579;-77
2022/09/12 07:40:22;;;;;;;;;;;13.10;99.90;;;;;;4999958;28;19945;-75
2022/09/12 07:42:50;;;;;;;;;;;13.10;99.90;;;;;;5009506;28;19925;-76
2022/09/12 07:45:17;;;;;;;;;;;13.10;99.90;;;;;;5001638;28;19932;-74
2022/09/12 07:47:44;;;;;;;;;;;13.10;99.90;;;;;;5007333;28;20351;-76
2022/09/12 07:50:12;;;;;;;;;;;13.10;99.90;;;;;;5004194;28;19952;-76
2022/09/12 07:52:38;;;;;;;;;;;13.10;99.90;;;;;;5010092;28;19925;-76
2022/09/12 07:55:13;;;;;;;;;;;13.10;99.90;;;;;;5005492;28;20392;-76
2022/09/12 07:57:44;;;;;;;;;;;13.10;99.90;;;;;;5005198;28;19926;-75
2022/09/12 08:00:15;;;;;;;;;;;13.20;99.90;;;;;;4987605;28;20020;-76
2022/09/12 08:02:43;;;;;;;;;;;13.20;99.90;;;;;;5010110;28;19937;-77
2022/09/12 08:05:10;;;;;;;;;;;13.20;99.90;;;;;;5002491;28;19925;-76
2022/09/12 08:07:37;;;;;;;;;;;13.20;99.90;;;;;;5010160;28;19926;-75
2022/09/12 08:10:05;;;;;;;;;;;13.20;99.90;;;;;;5006041;28;19929;-76
2022/09/12 08:12:33;;;;;;;;;;;13.20;99.90;;;;;;4992905;28;19932;-76
2022/09/12 08:15:01;;;;;;;;;;;13.20;99.90;;;;;;5000687;28;20020;-75
2022/09/12 08:17:29;;;;;;;;;;;13.20;99.90;;;;;;5010555;28;19948;-75
2022/09/12 08:19:56;;;;;;;;;;;13.30;99.90;;;;;;5003017;28;19933;-76
2022/09/12 08:22:25;;;;;;;;;;;13.30;99.90;;;;;;5004192;28;20031;-76
2022/09/12 08:24:52;;;;;;;;;;;13.30;99.90;;;;;;5006107;28;19925;-76
2022/09/12 08:27:19;;;;;;;;;;;13.30;99.90;;;;;;5008248;28;20016;-75
2022/09/12 08:29:46;;;;;;;;;;;13.30;99.90;;;;;;5004942;28;19925;-75
2022/09/12 08:32:14;;;;;;;;;;;13.30;99.90;;;;;;5004823;28;19932;-75
2022/09/12 08:34:43;;;;;;;;;;;13.30;99.90;;;;;;5007195;28;19925;-75
2022/09/12 08:39:40;;;;;;;;;;;13.30;99.90;;;;;;4966103;28;19928;-77
2022/09/12 08:42:10;;;;;;;;;;;13.40;99.90;;;;;;4967344;28;19969;-75
2022/09/12 08:45:04;;;;;;;;;;;13.30;99.90;;;;;;4967468;28;19957;-76
2022/09/12 08:47:34;;;;;;;;;;;13.40;99.90;;;;;;4934575;28;20053;-77
2022/09/12 08:50:10;;;;;;;;;;;13.40;99.90;;;;;;4965493;28;20386;-75
2022/09/12 08:52:41;;;;;;;;;;;13.40;99.90;;;;;;4967408;28;19930;-75
2022/09/12 08:55:16;;;;;;;;;;;13.40;99.90;;;;;;4968140;28;19954;-76
2022/09/12 08:57:45;;;;;;;;;;;13.40;99.90;;;;;;4951235;28;20489;-77
2022/09/12 09:00:14;;;;;;;;;;;13.40;99.90;;;;;;4966432;28;19930;-76
2022/09/12 09:03:00;;;;;;;;;;;13.40;99.90;;;;;;4968642;28;19934;-76
2022/09/12 09:05:38;;;;;;;;;;;13.40;99.90;;;;;;4964828;28;19930;-76
2022/09/12 09:08:21;;;;;;;;;;;13.50;99.90;;;;;;4967303;28;19934;-76
2022/09/12 09:10:51;;;;;;;;;;;13.50;99.90;;;;;;4964264;28;20401;-75
2022/09/12 09:16:20;;;;;;;;;;;13.50;99.90;;;;;;4971158;28;19932;-76
2022/09/12 09:18:49;;;;;;;;;;;13.60;99.90;;;;;;4967713;28;19967;-76
2022/09/12 09:21:21;;;;;;;;;;;13.60;99.90;;;;;;4949947;28;20293;-75
2022/09/12 09:23:50;;;;;;;;;;;13.60;99.90;;;;;;4964074;28;19934;-75
2022/09/12 09:26:25;;;;;;;;;;;13.60;99.90;;;;;;4968406;28;20020;-76
2022/09/12 09:28:57;;;;;;;;;;;13.60;99.90;;;;;;4953757;28;19974;-76
2022/09/12 09:31:25;;;;;;;;;;;13.70;99.90;;;;;;4969607;28;19926;-75
2022/09/12 09:33:54;;;;;;;;;;;13.70;99.90;;;;;;4972575;28;19981;-75
2022/09/12 09:36:24;;;;;;;;;;;13.70;99.90;;;;;;4969025;28;19926;-75
2022/09/12 09:38:54;;;;;;;;;;;13.70;99.90;;;;;;4970083;28;19934;-77
2022/09/12 09:41:35;;;;;;;;;;;13.70;99.90;;;;;;4969296;28;20456;-77
2022/09/12 09:44:03;;;;;;;;;;;13.70;99.90;;;;;;4970151;28;20491;-76
2022/09/12 09:46:30;;;;;;;;;;;13.80;99.90;;;;;;4972372;28;20381;-76
2022/09/12 09:49:02;;;;;;;;;;;13.80;99.90;;;;;;5006172;22;19926;-79
2022/09/12 09:51:35;;;;;;;;;;;13.80;99.90;;;;;;4990230;28;19936;-79
2022/09/12 09:54:04;;;;;;;;;;;13.80;99.90;;;;;;5007746;28;20056;-79
2022/09/12 09:56:32;;;;;;;;;;;13.80;99.90;;;;;;5001267;28;19933;-79
2022/09/12 09:59:09;;;;;;;;;;;13.80;99.90;;;;;;5005576;28;20472;-79
2022/09/12 10:01:37;;;;;;;;;;;13.90;99.90;;;;;;4979832;28;19926;-79
2022/09/12 10:04:04;;;;;;;;;;;13.80;99.90;;;;;;5004715;28;19961;-78
2022/09/12 10:06:33;;;;;;;;;;;13.90;99.90;;;;;;5004642;28;19933;-79
2022/09/12 10:09:08;;;;;;;;;;;13.90;99.90;;;;;;5011471;28;19958;-79
2022/09/12 10:11:38;;;;;;;;;;;13.90;99.90;;;;;;5008912;28;19957;-79
2022/09/12 10:14:04;;;;;;;;;;;13.90;99.90;;;;;;5002003;28;20418;-78
2022/09/12 10:16:47;;;;;;;;;;;13.90;99.90;;;;;;4994056;28;20016;-79
2022/09/12 10:19:23;;;;;;;;;;;13.90;99.90;;;;;;5008575;28;20012;-79
2022/09/12 10:21:53;;;;;;;;;;;14.00;99.90;;;;;;4991510;28;19933;-79
2022/09/12 10:24:21;;;;;;;;;;;14.00;99.90;;;;;;5003479;28;19968;-79
2022/09/12 10:26:53;;;;;;;;;;;14.00;99.90;;;;;;5011667;28;20393;-79
2022/09/12 10:29:23;;;;;;;;;;;14.00;99.90;;;;;;5013572;28;19936;-79
2022/09/12 10:31:54;;;;;;;;;;;14.10;99.90;;;;;;5005090;28;19925;-79
2022/09/12 10:34:26;;;;;;;;;;;14.00;99.90;;;;;;5003551;28;19937;-79
2022/09/12 10:36:59;;;;;;;;;;;14.10;99.90;;;;;;4989260;28;19932;-77
2022/09/12 10:39:26;;;;;;;;;;;14.40;99.90;;;;;;5008288;28;19934;-80
2022/09/12 10:41:54;;;;;;;;;;;14.30;99.90;;;;;;4996350;28;19934;-80
2022/09/12 10:44:24;;;;;;;;;;;14.30;99.90;;;;;;5004531;28;19965;-77
2022/09/12 10:46:51;;;;;;;;;;;14.30;99.90;;;;;;5008896;28;19975;-78
2022/09/12 10:49:26;;;;;;;;;;;14.30;99.90;;;;;;4984844;28;19930;-76
2022/09/12 10:51:54;;;;;;;;;;;14.30;99.90;;;;;;4981030;28;20398;-80
2022/09/12 10:54:23;;;;;;;;;;;14.40;99.90;;;;;;5003188;28;19925;-76
2022/09/12 10:57:11;;;;;;;;;;;14.50;99.90;;;;;;5016970;28;19926;-77
2022/09/12 10:59:43;;;;;;;;;;;14.40;99.90;;;;;;5007861;28;19941;-78
2022/09/12 11:02:14;;;;;;;;;;;14.40;99.90;;;;;;5012012;28;20160;-77
2022/09/12 11:04:48;;;;;;;;;;;14.40;99.90;;;;;;4997383;28;20017;-77
2022/09/12 11:07:21;;;;;;;;;;;14.50;99.90;;;;;;5004717;28;19929;-78
2022/09/12 11:09:54;;;;;;;;;;;14.50;99.90;;;;;;5005262;28;19934;-78
2022/09/12 11:12:25;;;;;;;;;;;14.50;99.90;;;;;;5012508;28;19925;-78
2022/09/12 11:14:56;;;;;;;;;;;14.50;99.90;;;;;;5002038;28;19965;-77
2022/09/12 11:17:28;;;;;;;;;;;14.60;99.90;;;;;;5005481;28;19929;-77
2022/09/12 11:20:03;;;;;;;;;;;14.60;99.90;;;;;;4985144;28;19933;-77
2022/09/12 11:22:45;;;;;;;;;;;14.60;99.90;;;;;;5002711;28;19930;-77
2022/09/12 11:25:18;;;;;;;;;;;14.60;99.90;;;;;;5004245;28;19929;-78
2022/09/12 11:28:00;;;;;;;;;;;14.60;99.90;;;;;;5009448;28;20497;-77
2022/09/12 11:30:30;;;;;;;;;;;14.60;99.90;;;;;;5007279;28;19937;-76
2022/09/12 11:33:04;;;;;;;;;;;14.60;99.90;;;;;;5007837;28;20368;-76
2022/09/12 11:35:32;;;;;;;;;;;14.70;99.90;;;;;;4994880;28;20347;-77
2022/09/12 11:38:04;;;;;;;;;;;14.70;99.90;;;;;;5001947;28;19930;-77
2022/09/12 11:40:37;;;;;;;;;;;14.70;99.90;;;;;;5002174;28;20144;-78
2022/09/12 11:43:07;;;;;;;;;;;14.70;99.90;;;;;;5000619;28;19934;-78
2022/09/12 11:45:35;;;;;;;;;;;14.70;99.90;;;;;;4979536;28;20315;-78
2022/09/12 11:48:06;;;;;;;;;;;14.80;99.90;;;;;;4991649;28;19948;-78
2022/09/12 11:50:32;;;;;;;;;;;14.90;99.90;;;;;;5002869;28;19936;-78
2022/09/12 11:53:03;;;;;;;;;;;15.00;99.90;;;;;;5006827;28;20342;-78
2022/09/12 11:55:32;;;;;;;;;;;15.00;99.90;;;;;;4999926;28;19934;-78
2022/09/12 11:58:00;;;;;;;;;;;15.00;99.90;;;;;;5001083;28;20341;-78
2022/09/12 12:00:30;;;;;;;;;;;15.00;99.90;;;;;;5011648;28;19948;-78
2022/09/12 12:02:59;;;;;;;;;;;15.00;99.90;;;;;;5001519;28;19931;-78
2022/09/12 12:05:29;;;;;;;;;;;15.10;99.90;;;;;;5007014;28;19925;-78
2022/09/12 12:07:56;;;;;;;;;;;15.10;99.90;;;;;;5004968;28;19925;-79
2022/09/12 12:10:25;;;;;;;;;;;15.10;99.90;;;;;;5005749;28;19925;-77
2022/09/12 12:12:53;;;;;;;;;;;15.10;99.90;;;;;;5001015;28;20011;-79
2022/09/12 12:15:22;;;;;;;;;;;15.10;99.90;;;;;;4998835;28;19948;-78
2022/09/12 12:18:00;;;;;;;;;;;15.10;99.90;;;;;;5010389;28;19929;-78
2022/09/12 12:20:27;;;;;;;;;;;15.20;99.90;;;;;;5002331;28;19940;-78
2022/09/12 12:22:55;;;;;;;;;;;15.20;99.90;;;;;;4975422;28;19926;-79
2022/09/12 12:25:24;;;;;;;;;;;15.20;99.90;;;;;;4977010;28;19932;-78
2022/09/12 12:27:54;;;;;;;;;;;15.20;99.90;;;;;;5003756;28;19925;-78
2022/09/12 12:30:39;;;;;;;;;;;15.30;99.90;;;;;;4983880;28;20466;-78
2022/09/12 12:33:31;;;;;;;;;;;15.30;99.90;;;;;;4997376;28;20401;-78
2022/09/12 12:36:03;;;;;;;;;;;15.30;99.90;;;;;;5000666;28;19930;-78
2022/09/12 12:38:30;;;;;;;;;;;15.40;99.90;;;;;;5000256;28;20415;-78
2022/09/12 12:41:12;;;;;;;;;;;15.40;99.90;;;;;;5003005;28;20025;-78
2022/09/12 12:43:39;;;;;;;;;;;15.40;99.90;;;;;;4998072;28;19930;-78
2022/09/12 12:46:08;;;;;;;;;;;15.50;99.90;;;;;;4976335;28;19926;-78
2022/09/12 12:48:44;;;;;;;;;;;15.50;99.90;;;;;;5003545;28;19925;-78
2022/09/12 12:51:26;;;;;;;;;;;15.60;99.90;;;;;;4983065;28;19937;-78
2022/09/12 12:53:53;;;;;;;;;;;15.70;99.90;;;;;;5006033;28;19925;-78
2022/09/12 12:56:28;;;;;;;;;;;15.70;99.90;;;;;;4981732;28;20020;-79
2022/09/12 12:58:58;;;;;;;;;;;15.70;99.90;;;;;;4997283;28;20024;-78
2022/09/12 13:01:26;;;;;;;;;;;15.80;99.90;;;;;;4990988;28;20024;-79
2022/09/12 13:03:55;;;;;;;;;;;15.80;99.90;;;;;;4983683;28;19929;-77
2022/09/12 13:06:27;;;;;;;;;;;16.10;99.90;;;;;;5002785;28;19932;-78
2022/09/12 13:08:58;;;;;;;;;;;16.10;99.90;;;;;;4996719;28;20366;-77
2022/09/12 13:11:29;;;;;;;;;;;16.10;99.90;;;;;;4994092;28;19930;-77
2022/09/12 13:13:59;;;;;;;;;;;16.20;99.90;;;;;;4996104;28;19930;-78
2022/09/12 13:16:30;;;;;;;;;;;16.20;99.90;;;;;;4993912;28;19944;-77
2022/09/12 13:19:02;;;;;;;;;;;16.20;99.90;;;;;;4978780;28;19934;-78
2022/09/12 13:21:29;;;;;;;;;;;16.20;99.90;;;;;;5000573;28;19934;-77
2022/09/12 13:23:59;;;;;;;;;;;16.20;99.90;;;;;;4994007;28;19933;-78
2022/09/12 13:26:26;;;;;;;;;;;16.30;99.90;;;;;;4995918;28;20041;-78
2022/09/12 13:29:08;;;;;;;;;;;16.30;99.90;;;;;;4998783;28;19925;-78
2022/09/12 13:31:35;;;;;;;;;;;16.40;99.90;;;;;;4998202;28;19932;-78
2022/09/12 13:34:05;;;;;;;;;;;16.50;99.90;;;;;;4996732;28;19940;-78
2022/09/12 13:36:52;;;;;;;;;;;16.50;99.90;;;;;;5001489;28;19926;-77
2022/09/12 13:39:20;;;;;;;;;;;16.50;99.90;;;;;;4989368;28;20396;-77
2022/09/12 13:42:07;;;;;;;;;;;16.60;99.90;;;;;;4992647;28;19937;-77
2022/09/12 13:44:40;;;;;;;;;;;16.60;99.90;;;;;;4992186;28;20312;-77
2022/09/12 13:47:10;;;;;;;;;;;16.70;99.90;;;;;;4998186;28;19926;-77
2022/09/12 13:49:40;;;;;;;;;;;16.70;99.90;;;;;;5000334;28;19925;-78
2022/09/12 13:52:08;;;;;;;;;;;16.80;99.90;;;;;;4985303;28;19932;-78
2022/09/12 13:54:37;;;;;;;;;;;16.80;99.90;;;;;;5001890;28;19984;-78
2022/09/12 13:57:04;;;;;;;;;;;16.80;99.90;;;;;;4992061;28;20421;-77
2022/09/12 13:59:37;;;;;;;;;;;16.90;99.90;;;;;;4992121;28;19925;-78
2022/09/12 14:02:16;;;;;;;;;;;17.00;99.90;;;;;;5002789;28;19964;-78
2022/09/12 14:07:31;;;;;;;;;;;17.10;99.90;;;;;;5006716;28;19933;-78
2022/09/12 14:09:58;;;;;;;;;;;17.10;99.90;;;;;;4999174;28;20850;-78
2022/09/12 14:12:29;;;;;;;;;;;17.20;99.90;;;;;;5008701;28;19926;-79
2022/09/12 14:14:55;;;;;;;;;;;17.20;99.90;;;;;;5009614;28;19941;-78
2022/09/12 14:17:28;;;;;;;;;;;17.30;99.90;;;;;;5007689;28;20010;-78
2022/09/12 14:19:58;;;;;;;;;;;17.30;99.90;;;;;;5006875;28;19932;-78
2022/09/12 14:22:28;;;;;;;;;;;17.30;99.90;;;;;;5008796;28;20400;-78
2022/09/12 14:24:55;;;;;;;;;;;17.40;99.90;;;;;;5004772;28;20411;-78
2022/09/12 14:27:24;;;;;;;;;;;17.40;99.90;;;;;;4988285;28;19956;-78
2022/09/12 14:29:54;;;;;;;;;;;17.50;99.90;;;;;;5004299;28;19929;-78
2022/09/12 14:32:23;;;;;;;;;;;17.50;99.90;;;;;;5002219;28;19931;-78
2022/09/12 14:35:08;;;;;;;;;;;17.60;99.90;;;;;;4997249;28;19937;-78
2022/09/12 14:37:37;;;;;;;;;;;17.60;99.90;;;;;;4993169;28;20391;-78
2022/09/12 14:40:04;;;;;;;;;;;17.70;99.90;;;;;;5006075;28;19933;-78
2022/09/12 14:42:32;;;;;;;;;;;17.70;99.90;;;;;;5000442;28;19933;-78